sensor_id;sensor_type;location;lat;lon;timestamp;pressure;altitude;pressure_sealevel;temperature;humidity
23899;BME280;20544;50.018;20.010;2022-10-17T00:01:11;99837.19;;;11.34;100.00
23899;BME280;20544;50.018;20.010;2022-10-17T00:04:27;99837.84;;;11.36;100.00
23899;BME280;20544;50.018;20.010;2022-10-17T00:07:43;99846.62;;;11.28;100.00
23899;BME280;20544;50.018;20.010;2022-10-17T00:11:01;99845.11;;;11.26;100.00
23899;BME280;20544;50.018;20.010;2022-10-17T00:14:21;99840.63;;;11.26;100.00
23899;BME280;20544;50.018;20.010;2022-10-17T00:17:37;99843.61;;;11.23;100.00
23899;BME280;20544;50.018;20.010;2022-10-17T00:20:54;99837.79;;;11.20;100.00
23899;BME280;20544;50.018;20.010;2022-10-17T00:24:13;99841.27;;;11.20;100.00
23899;BME280;20544;50.018;20.010;2022-10-17T00:27:29;99841.77;;;11.15;100.00
23899;BME280;20544;50.018;20.010;2022-10-17T00:30:55;99844.42;;;11.15;100.00
23899;BME280;20544;50.018;20.010;2022-10-17T00:34:13;99855.16;;;11.06;100.00
23899;BME280;20544;50.018;20.010;2022-10-17T00:37:32;99859.48;;;11.07;100.00
23899;BME280;20544;50.018;20.010;2022-10-17T00:40:50;99858.97;;;11.03;100.00
23899;BME280;20544;50.018;20.010;2022-10-17T00:48:02;99865.42;;;11.00;100.00
23899;BME280;20544;50.018;20.010;2022-10-17T00:51:22;99862.25;;;10.97;100.00
23899;BME280;20544;50.018;20.010;2022-10-17T00:54:44;99863.86;;;10.90;100.00
23899;BME280;20544;50.018;20.010;2022-10-17T00:58:03;99858.20;;;10.84;100.00
23899;BME280;20544;50.018;20.010;2022-10-17T01:01:22;99857.84;;;10.79;100.00
23899;BME280;20544;50.018;20.010;2022-10-17T01:04:40;99866.63;;;10.80;100.00
23899;BME280;20544;50.018;20.010;2022-10-17T01:07:56;99855.19;;;10.79;100.00
23899;BME280;20544;50.018;20.010;2022-10-17T01:11:20;99855.48;;;10.76;100.00
23899;BME280;20544;50.018;20.010;2022-10-17T01:14:44;99852.64;;;10.70;100.00
23899;BME280;20544;50.018;20.010;2022-10-17T01:18:10;99855.81;;;10.73;100.00
23899;BME280;20544;50.018;20.010;2022-10-17T01:21:46;99852.38;;;10.81;100.00
23899;BME280;20544;50.018;20.010;2022-10-17T01:25:17;99855.33;;;10.78;100.00
23899;BME280;20544;50.018;20.010;2022-10-17T01:29:07;99853.63;;;10.68;100.00
23899;BME280;20544;50.018;20.010;2022-10-17T01:32:44;99850.45;;;10.65;100.00
23899;BME280;20544;50.018;20.010;2022-10-17T01:36:05;99853.43;;;10.62;100.00
23899;BME280;20544;50.018;20.010;2022-10-17T01:39:30;99844.09;;;10.58;100.00
23899;BME280;20544;50.018;20.010;2022-10-17T01:42:50;99849.56;;;10.56;100.00
23899;BME280;20544;50.018;20.010;2022-10-17T01:46:12;99855.72;;;10.57;100.00
23899;BME280;20544;50.018;20.010;2022-10-17T01:49:32;99859.39;;;10.64;100.00
23899;BME280;20544;50.018;20.010;2022-10-17T01:52:53;99863.02;;;10.63;100.00
23899;BME280;20544;50.018;20.010;2022-10-17T01:56:15;99866.00;;;10.60;100.00
23899;BME280;20544;50.018;20.010;2022-10-17T01:59:35;99859.03;;;10.59;100.00
23899;BME280;20544;50.018;20.010;2022-10-17T02:02:55;99861.02;;;10.57;100.00
23899;BME280;20544;50.018;20.010;2022-10-17T02:06:13;99856.70;;;10.56;100.00
23899;BME280;20544;50.018;20.010;2022-10-17T02:09:29;99851.03;;;10.50;100.00
23899;BME280;20544;50.018;20.010;2022-10-17T02:12:51;99854.67;;;10.49;100.00
23899;BME280;20544;50.018;20.010;2022-10-17T02:16:22;99849.37;;;10.49;100.00
23899;BME280;20544;50.018;20.010;2022-10-17T02:19:52;99866.27;;;10.48;100.00
23899;BME280;20544;50.018;20.010;2022-10-17T02:23:14;99865.41;;;10.48;100.00
23899;BME280;20544;50.018;20.010;2022-10-17T02:26:34;99853.98;;;10.47;100.00
23899;BME280;20544;50.018;20.010;2022-10-17T02:30:00;99863.61;;;10.48;100.00
23899;BME280;20544;50.018;20.010;2022-10-17T02:33:21;99863.09;;;10.45;100.00
23899;BME280;20544;50.018;20.010;2022-10-17T02:36:44;99861.41;;;10.44;100.00
23899;BME280;20544;50.018;20.010;2022-10-17T02:40:03;99859.61;;;10.44;100.00
23899;BME280;20544;50.018;20.010;2022-10-17T02:43:22;99857.58;;;10.38;100.00
23899;BME280;20544;50.018;20.010;2022-10-17T02:46:42;99865.10;;;10.33;100.00
23899;BME280;20544;50.018;20.010;2022-10-17T02:50:03;99865.10;;;10.33;100.00
23899;BME280;20544;50.018;20.010;2022-10-17T02:53:24;99871.26;;;10.33;100.00
23899;BME280;20544;50.018;20.010;2022-10-17T02:56:47;99873.38;;;10.30;100.00
23899;BME280;20544;50.018;20.010;2022-10-17T03:00:12;99875.83;;;10.23;100.00
23899;BME280;20544;50.018;20.010;2022-10-17T03:03:33;99877.63;;;10.23;100.00
23899;BME280;20544;50.018;20.010;2022-10-17T03:06:50;99883.78;;;10.23;100.00
23899;BME280;20544;50.018;20.010;2022-10-17T03:10:06;99887.41;;;10.22;100.00
23899;BME280;20544;50.018;20.010;2022-10-17T03:13:23;99887.16;;;10.15;100.00
23899;BME280;20544;50.018;20.010;2022-10-17T03:16:41;99882.47;;;10.09;100.00
23899;BME280;20544;50.018;20.010;2022-10-17T03:19:57;99894.21;;;10.07;100.00
23899;BME280;20544;50.018;20.010;2022-10-17T03:23:14;99894.38;;;10.05;100.00
23899;BME280;20544;50.018;20.010;2022-10-17T03:26:32;99897.34;;;10.02;100.00
23899;BME280;20544;50.018;20.010;2022-10-17T03:29:48;99900.12;;;10.00;100.00
23899;BME280;20544;50.018;20.010;2022-10-17T03:33:04;99909.74;;;10.01;100.00
23899;BME280;20544;50.018;20.010;2022-10-17T03:36:21;99912.39;;;10.01;100.00
23899;BME280;20544;50.018;20.010;2022-10-17T03:39:37;99910.59;;;10.02;100.00
23899;BME280;20544;50.018;20.010;2022-10-17T03:42:53;99920.19;;;10.03;100.00
23899;BME280;20544;50.018;20.010;2022-10-17T03:46:09;99924.28;;;9.97;100.00
23899;BME280;20544;50.018;20.010;2022-10-17T03:49:25;99927.53;;;9.91;100.00
23899;BME280;20544;50.018;20.010;2022-10-17T03:52:42;99932.84;;;9.91;100.00
23899;BME280;20544;50.018;20.010;2022-10-17T03:56:11;99932.14;;;9.89;100.00
23899;BME280;20544;50.018;20.010;2022-10-17T03:59:31;99938.42;;;9.88;100.00
23899;BME280;20544;50.018;20.010;2022-10-17T04:02:49;99933.59;;;9.83;100.00
23899;BME280;20544;50.018;20.010;2022-10-17T04:06:06;99932.07;;;9.81;100.00
23899;BME280;20544;50.018;20.010;2022-10-17T04:09:26;99930.68;;;9.77;100.00
23899;BME280;20544;50.018;20.010;2022-10-17T04:12:53;99924.84;;;9.73;100.00
23899;BME280;20544;50.018;20.010;2022-10-17T04:16:11;99927.37;;;9.75;100.00
23899;BME280;20544;50.018;20.010;2022-10-17T04:19:31;99926.52;;;9.74;100.00
23899;BME280;20544;50.018;20.010;2022-10-17T04:22:48;99928.03;;;9.77;100.00
23899;BME280;20544;50.018;20.010;2022-10-17T04:26:05;99925.38;;;9.77;100.00
23899;BME280;20544;50.018;20.010;2022-10-17T04:29:22;99925.38;;;9.77;100.00
23899;BME280;20544;50.018;20.010;2022-10-17T04:32:46;99936.83;;;9.77;100.00
23899;BME280;20544;50.018;20.010;2022-10-17T04:36:06;99935.44;;;9.73;100.00
23899;BME280;20544;50.018;20.010;2022-10-17T04:39:25;99935.59;;;9.71;100.00
23899;BME280;20544;50.018;20.010;2022-10-17T04:42:42;99938.34;;;9.80;100.00
23899;BME280;20544;50.018;20.010;2022-10-17T04:49:29;99944.39;;;9.72;100.00
23899;BME280;20544;50.018;20.010;2022-10-17T04:52:47;99946.12;;;9.63;100.00
23899;BME280;20544;50.018;20.010;2022-10-17T04:56:09;99950.41;;;9.64;100.00
23899;BME280;20544;50.018;20.010;2022-10-17T04:59:27;99949.05;;;9.60;100.00
23899;BME280;20544;50.018;20.010;2022-10-17T05:03:01;99948.89;;;9.62;100.00
23899;BME280;20544;50.018;20.010;2022-10-17T05:06:18;99941.25;;;9.59;100.00
23899;BME280;20544;50.018;20.010;2022-10-17T05:09:54;99958.55;;;9.53;100.00
23899;BME280;20544;50.018;20.010;2022-10-17T05:13:12;99965.13;;;9.49;100.00
23899;BME280;20544;50.018;20.010;2022-10-17T05:16:29;99953.02;;;9.46;100.00
23899;BME280;20544;50.018;20.010;2022-10-17T05:19:47;99957.61;;;9.44;100.00
23899;BME280;20544;50.018;20.010;2022-10-17T05:23:04;99961.50;;;9.50;100.00
23899;BME280;20544;50.018;20.010;2022-10-17T05:26:24;99970.86;;;9.44;100.00
23899;BME280;20544;50.018;20.010;2022-10-17T05:29:44;99977.13;;;9.43;100.00
23899;BME280;20544;50.018;20.010;2022-10-17T05:33:02;99985.92;;;9.44;100.00
23899;BME280;20544;50.018;20.010;2022-10-17T05:36:20;99978.92;;;9.52;100.00
23899;BME280;20544;50.018;20.010;2022-10-17T05:39:37;99981.41;;;9.54;100.00
23899;BME280;20544;50.018;20.010;2022-10-17T05:42:55;99977.94;;;9.53;100.00
23899;BME280;20544;50.018;20.010;2022-10-17T05:46:12;99981.22;;;9.65;100.00
23899;BME280;20544;50.018;20.010;2022-10-17T05:49:28;99976.85;;;9.74;100.00
23899;BME280;20544;50.018;20.010;2022-10-17T05:52:46;99981.83;;;9.87;100.00
23899;BME280;20544;50.018;20.010;2022-10-17T05:56:05;99986.33;;;10.04;100.00
23899;BME280;20544;50.018;20.010;2022-10-17T05:59:27;99994.66;;;10.10;100.00
23899;BME280;20544;50.018;20.010;2022-10-17T06:02:49;99996.88;;;10.14;100.00
23899;BME280;20544;50.018;20.010;2022-10-17T06:06:07;100004.36;;;10.19;100.00
23899;BME280;20544;50.018;20.010;2022-10-17T06:09:26;100007.11;;;10.27;100.00
23899;BME280;20544;50.018;20.010;2022-10-17T06:12:43;100014.91;;;10.29;100.00
23899;BME280;20544;50.018;20.010;2022-10-17T06:16:00;100025.64;;;10.37;100.00
23899;BME280;20544;50.018;20.010;2022-10-17T06:19:16;100030.13;;;10.55;100.00
23899;BME280;20544;50.018;20.010;2022-10-17T06:22:34;100031.62;;;10.75;100.00
23899;BME280;20544;50.018;20.010;2022-10-17T06:25:52;100033.66;;;10.99;100.00
23899;BME280;20544;50.018;20.010;2022-10-17T06:29:09;100028.73;;;11.31;100.00
23899;BME280;20544;50.018;20.010;2022-10-17T06:32:30;100030.63;;;11.73;100.00
23899;BME280;20544;50.018;20.010;2022-10-17T06:35:51;100042.36;;;12.48;100.00
23899;BME280;20544;50.018;20.010;2022-10-17T06:39:09;100042.89;;;13.42;100.00
23899;BME280;20544;50.018;20.010;2022-10-17T06:42:28;100055.65;;;14.12;100.00
23899;BME280;20544;50.018;20.010;2022-10-17T06:46:02;100070.07;;;14.88;100.00
23899;BME280;20544;50.018;20.010;2022-10-17T06:49:21;100070.68;;;15.52;100.00
23899;BME280;20544;50.018;20.010;2022-10-17T06:52:39;100073.45;;;16.18;100.00
23899;BME280;20544;50.018;20.010;2022-10-17T06:56:14;100081.84;;;16.30;100.00
23899;BME280;20544;50.018;20.010;2022-10-17T06:59:36;100085.70;;;16.64;100.00
23899;BME280;20544;50.018;20.010;2022-10-17T07:02:54;100089.80;;;16.82;100.00
23899;BME280;20544;50.018;20.010;2022-10-17T07:06:12;100089.68;;;16.90;100.00
23899;BME280;20544;50.018;20.010;2022-10-17T07:09:34;100096.83;;;17.26;100.00
23899;BME280;20544;50.018;20.010;2022-10-17T07:12:54;100112.40;;;17.66;100.00
23899;BME280;20544;50.018;20.010;2022-10-17T07:16:13;100110.30;;;17.61;100.00
23899;BME280;20544;50.018;20.010;2022-10-17T07:19:32;100108.63;;;17.60;100.00
23899;BME280;20544;50.018;20.010;2022-10-17T07:22:48;100109.75;;;17.73;100.00
23899;BME280;20544;50.018;20.010;2022-10-17T07:26:09;100110.39;;;17.75;99.87
23899;BME280;20544;50.018;20.010;2022-10-17T07:29:30;100106.93;;;17.53;100.00
23899;BME280;20544;50.018;20.010;2022-10-17T07:32:49;100104.91;;;17.05;100.00
23899;BME280;20544;50.018;20.010;2022-10-17T07:36:08;100104.95;;;16.90;100.00
23899;BME280;20544;50.018;20.010;2022-10-17T07:39:34;100103.84;;;16.62;100.00
23899;BME280;20544;50.018;20.010;2022-10-17T07:42:51;100094.14;;;16.61;100.00
23899;BME280;20544;50.018;20.010;2022-10-17T07:46:10;100086.21;;;16.53;100.00
23899;BME280;20544;50.018;20.010;2022-10-17T07:49:27;100085.49;;;16.44;100.00
23899;BME280;20544;50.018;20.010;2022-10-17T07:52:43;100077.46;;;16.44;100.00
23899;BME280;20544;50.018;20.010;2022-10-17T07:56:05;100080.63;;;16.33;100.00
23899;BME280;20544;50.018;20.010;2022-10-17T07:59:22;100081.84;;;16.30;100.00
23899;BME280;20544;50.018;20.010;2022-10-17T08:02:38;100084.88;;;16.27;100.00
23899;BME280;20544;50.018;20.010;2022-10-17T08:05:59;100086.38;;;16.30;100.00
23899;BME280;20544;50.018;20.010;2022-10-17T08:09:16;100087.00;;;16.32;100.00
23899;BME280;20544;50.018;20.010;2022-10-17T08:12:32;100089.13;;;16.37;100.00
23899;BME280;20544;50.018;20.010;2022-10-17T08:15:49;100092.97;;;16.49;100.00
23899;BME280;20544;50.018;20.010;2022-10-17T08:19:05;100100.41;;;16.69;100.00
23899;BME280;20544;50.018;20.010;2022-10-17T08:22:22;100108.55;;;16.82;100.00
23899;BME280;20544;50.018;20.010;2022-10-17T08:25:40;100107.53;;;16.83;100.00
23899;BME280;20544;50.018;20.010;2022-10-17T08:28:59;100108.44;;;16.90;100.00
23899;BME280;20544;50.018;20.010;2022-10-17T08:32:16;100105.76;;;16.90;100.00
23899;BME280;20544;50.018;20.010;2022-10-17T08:35:34;100104.21;;;16.96;100.00
23899;BME280;20544;50.018;20.010;2022-10-17T08:38:50;100109.63;;;17.03;100.00
23899;BME280;20544;50.018;20.010;2022-10-17T08:42:17;100106.17;;;17.09;100.00
23899;BME280;20544;50.018;20.010;2022-10-17T08:45:41;100115.92;;;17.17;100.00
23899;BME280;20544;50.018;20.010;2022-10-17T08:49:03;100111.91;;;17.27;100.00
23899;BME280;20544;50.018;20.010;2022-10-17T08:52:27;100116.16;;;17.43;100.00
23899;BME280;20544;50.018;20.010;2022-10-17T08:55:48;100115.86;;;17.60;100.00
23899;BME280;20544;50.018;20.010;2022-10-17T08:59:11;100120.48;;;17.73;100.00
23899;BME280;20544;50.018;20.010;2022-10-17T09:02:41;100120.57;;;17.86;100.00
23899;BME280;20544;50.018;20.010;2022-10-17T09:06:05;100116.72;;;17.95;100.00
23899;BME280;20544;50.018;20.010;2022-10-17T09:09:34;100115.14;;;18.08;100.00
23899;BME280;20544;50.018;20.010;2022-10-17T09:13:02;100119.94;;;18.19;100.00
23899;BME280;20544;50.018;20.010;2022-10-17T09:16:37;100116.89;;;18.29;100.00
23899;BME280;20544;50.018;20.010;2022-10-17T09:20:04;100121.50;;;18.42;100.00
23899;BME280;20544;50.018;20.010;2022-10-17T09:23:26;100116.98;;;18.49;100.00
23899;BME280;20544;50.018;20.010;2022-10-17T09:26:47;100118.03;;;18.62;100.00
23899;BME280;20544;50.018;20.010;2022-10-17T09:33:53;100121.45;;;19.04;100.00
23899;BME280;20544;50.018;20.010;2022-10-17T09:37:13;100124.78;;;19.26;100.00
23899;BME280;20544;50.018;20.010;2022-10-17T09:40:32;100125.61;;;19.53;100.00
23899;BME280;20544;50.018;20.010;2022-10-17T09:43:49;100127.05;;;19.69;100.00
23899;BME280;20544;50.018;20.010;2022-10-17T09:47:22;100133.45;;;19.88;100.00
23899;BME280;20544;50.018;20.010;2022-10-17T09:50:43;100136.72;;;20.11;99.67
23899;BME280;20544;50.018;20.010;2022-10-17T09:54:06;100141.22;;;20.30;98.68
23899;BME280;20544;50.018;20.010;2022-10-17T09:57:24;100135.30;;;20.53;97.46
23899;BME280;20544;50.018;20.010;2022-10-17T10:00:42;100132.55;;;20.74;96.70
23899;BME280;20544;50.018;20.010;2022-10-17T10:04:13;100129.50;;;20.95;100.00
23899;BME280;20544;50.018;20.010;2022-10-17T10:07:31;100129.81;;;21.12;96.20
23899;BME280;20544;50.018;20.010;2022-10-17T10:10:55;100133.00;;;21.28;96.03
23899;BME280;20544;50.018;20.010;2022-10-17T10:14:18;100134.09;;;21.45;89.55
23899;BME280;20544;50.018;20.010;2022-10-17T10:17:40;100133.83;;;21.54;92.99
23899;BME280;20544;50.018;20.010;2022-10-17T10:21:07;100129.97;;;21.68;91.43
23899;BME280;20544;50.018;20.010;2022-10-17T10:24:25;100130.89;;;21.80;90.30
23899;BME280;20544;50.018;20.010;2022-10-17T10:27:47;100131.27;;;21.84;86.50
23899;BME280;20544;50.018;20.010;2022-10-17T10:31:07;100122.94;;;21.86;86.02
23899;BME280;20544;50.018;20.010;2022-10-17T10:34:26;100125.50;;;21.99;88.44
23899;BME280;20544;50.018;20.010;2022-10-17T10:37:45;100128.06;;;22.12;88.86
23899;BME280;20544;50.018;20.010;2022-10-17T10:41:05;100126.02;;;22.26;88.81
23899;BME280;20544;50.018;20.010;2022-10-17T10:44:24;100124.48;;;22.37;86.32
23899;BME280;20544;50.018;20.010;2022-10-17T10:47:50;100114.98;;;22.46;88.21
23899;BME280;20544;50.018;20.010;2022-10-17T10:51:11;100116.58;;;22.54;87.23
23899;BME280;20544;50.018;20.010;2022-10-17T10:54:33;100115.86;;;22.59;85.01
23899;BME280;20544;50.018;20.010;2022-10-17T10:57:53;100112.48;;;22.64;83.18
23899;BME280;20544;50.018;20.010;2022-10-17T11:01:15;100111.74;;;22.56;81.86
23899;BME280;20544;50.018;20.010;2022-10-17T11:04:35;100107.63;;;22.54;82.00
23899;BME280;20544;50.018;20.010;2022-10-17T11:07:57;100103.36;;;22.46;81.18
23899;BME280;20544;50.018;20.010;2022-10-17T11:11:18;100110.05;;;22.43;81.91
23899;BME280;20544;50.018;20.010;2022-10-17T11:14:46;100109.21;;;22.43;81.63
23899;BME280;20544;50.018;20.010;2022-10-17T11:18:05;100104.11;;;22.35;80.59
23899;BME280;20544;50.018;20.010;2022-10-17T11:21:27;100095.63;;;22.31;84.12
23899;BME280;20544;50.018;20.010;2022-10-17T11:24:52;100090.90;;;22.26;83.76
23899;BME280;20544;50.018;20.010;2022-10-17T11:28:14;100092.65;;;22.21;84.86
23899;BME280;20544;50.018;20.010;2022-10-17T11:31:36;100091.23;;;22.18;85.97
23899;BME280;20544;50.018;20.010;2022-10-17T11:34:57;100081.67;;;22.16;87.91
23899;BME280;20544;50.018;20.010;2022-10-17T11:38:20;100086.73;;;22.12;84.56
23899;BME280;20544;50.018;20.010;2022-10-17T11:41:43;100090.11;;;22.07;83.06
23899;BME280;20544;50.018;20.010;2022-10-17T11:45:06;100081.39;;;22.05;80.98
23899;BME280;20544;50.018;20.010;2022-10-17T11:48:27;100076.45;;;22.02;77.11
23899;BME280;20544;50.018;20.010;2022-10-17T11:51:47;100077.41;;;22.08;73.05
23899;BME280;20544;50.018;20.010;2022-10-17T11:55:15;100080.48;;;22.11;71.95
23899;BME280;20544;50.018;20.010;2022-10-17T11:58:38;100078.25;;;22.08;72.20
23899;BME280;20544;50.018;20.010;2022-10-17T12:01:57;100074.56;;;22.03;76.55
23899;BME280;20544;50.018;20.010;2022-10-17T12:05:20;100074.42;;;21.97;78.79
23899;BME280;20544;50.018;20.010;2022-10-17T12:08:43;100064.90;;;21.95;74.78
23899;BME280;20544;50.018;20.010;2022-10-17T12:12:05;100062.87;;;21.90;78.09
23899;BME280;20544;50.018;20.010;2022-10-17T12:15:31;100062.72;;;21.85;78.31
23899;BME280;20544;50.018;20.010;2022-10-17T12:18:51;100059.06;;;21.79;79.22
23899;BME280;20544;50.018;20.010;2022-10-17T12:22:22;100050.79;;;21.74;77.84
23899;BME280;20544;50.018;20.010;2022-10-17T12:25:48;100053.72;;;21.73;74.55
23899;BME280;20544;50.018;20.010;2022-10-17T12:29:21;100055.29;;;21.80;73.20
23899;BME280;20544;50.018;20.010;2022-10-17T12:32:42;100042.69;;;21.74;74.89
23899;BME280;20544;50.018;20.010;2022-10-17T12:39:54;100046.81;;;21.77;71.18
23899;BME280;20544;50.018;20.010;2022-10-17T12:43:34;100039.56;;;21.77;73.81
23899;BME280;20544;50.018;20.010;2022-10-17T12:46:59;100038.57;;;21.72;73.20
23899;BME280;20544;50.018;20.010;2022-10-17T12:51:01;100037.91;;;21.76;73.95
23899;BME280;20544;50.018;20.010;2022-10-17T12:54:21;100038.89;;;21.82;71.09
23899;BME280;20544;50.018;20.010;2022-10-17T12:57:39;100035.58;;;21.80;73.55
23899;BME280;20544;50.018;20.010;2022-10-17T13:01:02;100031.08;;;21.74;74.57
23899;BME280;20544;50.018;20.010;2022-10-17T13:04:25;100033.64;;;21.69;72.41
23899;BME280;20544;50.018;20.010;2022-10-17T13:07:43;100032.41;;;21.64;73.78
23899;BME280;20544;50.018;20.010;2022-10-17T13:11:01;100033.78;;;21.74;72.34
23899;BME280;20544;50.018;20.010;2022-10-17T13:14:19;100030.94;;;21.69;73.35
23899;BME280;20544;50.018;20.010;2022-10-17T13:17:36;100033.69;;;21.62;75.01
23899;BME280;20544;50.018;20.010;2022-10-17T13:21:00;100027.48;;;21.61;73.46
23899;BME280;20544;50.018;20.010;2022-10-17T13:24:28;100028.09;;;21.63;72.80
23899;BME280;20544;50.018;20.010;2022-10-17T13:27:47;100030.09;;;21.68;72.64
23899;BME280;20544;50.018;20.010;2022-10-17T13:31:04;100030.61;;;21.77;72.24
23899;BME280;20544;50.018;20.010;2022-10-17T13:34:22;100030.47;;;21.72;72.37
23899;BME280;20544;50.018;20.010;2022-10-17T13:37:40;100029.28;;;21.68;72.44
23899;BME280;20544;50.018;20.010;2022-10-17T13:41:01;100025.39;;;21.63;73.04
23899;BME280;20544;50.018;20.010;2022-10-17T13:44:22;100032.64;;;21.63;73.29
23899;BME280;20544;50.018;20.010;2022-10-17T13:47:40;100026.66;;;21.61;73.33
23899;BME280;20544;50.018;20.010;2022-10-17T13:50:58;100027.77;;;21.72;73.17
23899;BME280;20544;50.018;20.010;2022-10-17T13:54:33;100030.09;;;21.68;73.67
23899;BME280;20544;50.018;20.010;2022-10-17T13:57:51;100029.42;;;21.73;73.10
23899;BME280;20544;50.018;20.010;2022-10-17T14:01:07;100024.41;;;21.76;73.21
23899;BME280;20544;50.018;20.010;2022-10-17T14:04:24;100020.72;;;21.71;74.23
23899;BME280;20544;50.018;20.010;2022-10-17T14:07:45;100019.15;;;21.63;74.24
23899;BME280;20544;50.018;20.010;2022-10-17T14:11:14;100025.24;;;21.58;74.16
23899;BME280;20544;50.018;20.010;2022-10-17T14:14:34;100025.64;;;21.55;74.30
23899;BME280;20544;50.018;20.010;2022-10-17T14:17:58;100014.47;;;21.52;74.62
23899;BME280;20544;50.018;20.010;2022-10-17T14:21:22;100013.42;;;21.53;74.70
23899;BME280;20544;50.018;20.010;2022-10-17T14:24:41;100020.71;;;21.52;73.85
23899;BME280;20544;50.018;20.010;2022-10-17T14:28:02;100023.03;;;21.48;75.11
23899;BME280;20544;50.018;20.010;2022-10-17T14:31:31;100019.95;;;21.45;78.74
23899;BME280;20544;50.018;20.010;2022-10-17T14:34:53;100019.34;;;21.43;75.80
23899;BME280;20544;50.018;20.010;2022-10-17T14:38:15;100022.31;;;21.34;78.59
23899;BME280;20544;50.018;20.010;2022-10-17T14:41:33;100013.69;;;21.26;78.40
23899;BME280;20544;50.018;20.010;2022-10-17T14:44:55;100015.42;;;21.20;79.79
23899;BME280;20544;50.018;20.010;2022-10-17T14:48:22;100010.09;;;21.13;78.93
23899;BME280;20544;50.018;20.010;2022-10-17T14:51:40;100013.22;;;21.10;81.03
23899;BME280;20544;50.018;20.010;2022-10-17T14:54:59;100000.46;;;20.99;82.76
23899;BME280;20544;50.018;20.010;2022-10-17T14:58:29;100002.84;;;20.89;83.99
23899;BME280;20544;50.018;20.010;2022-10-17T15:01:46;100007.68;;;20.80;86.02
23899;BME280;20544;50.018;20.010;2022-10-17T15:05:02;100006.09;;;20.65;87.51
23899;BME280;20544;50.018;20.010;2022-10-17T15:08:24;100007.22;;;20.51;91.73
23899;BME280;20544;50.018;20.010;2022-10-17T15:11:40;100006.06;;;20.40;91.98
23899;BME280;20544;50.018;20.010;2022-10-17T15:14:56;99998.05;;;20.27;94.12
23899;BME280;20544;50.018;20.010;2022-10-17T15:18:15;99993.95;;;20.17;94.91
23899;BME280;20544;50.018;20.010;2022-10-17T15:21:31;100001.08;;;20.05;95.60
23899;BME280;20544;50.018;20.010;2022-10-17T15:24:49;99996.34;;;19.94;96.32
23899;BME280;20544;50.018;20.010;2022-10-17T15:28:05;99994.95;;;19.84;97.39
23899;BME280;20544;50.018;20.010;2022-10-17T15:31:23;100006.76;;;19.70;98.30
23899;BME280;20544;50.018;20.010;2022-10-17T15:34:40;100002.04;;;19.59;99.31
23899;BME280;20544;50.018;20.010;2022-10-17T15:37:57;100004.34;;;19.48;100.00
23899;BME280;20544;50.018;20.010;2022-10-17T15:41:14;100003.13;;;19.37;100.00
23899;BME280;20544;50.018;20.010;2022-10-17T15:44:30;99999.85;;;19.22;100.00
23899;BME280;20544;50.018;20.010;2022-10-17T15:47:51;100003.80;;;19.06;100.00
23899;BME280;20544;50.018;20.010;2022-10-17T15:51:08;99998.23;;;18.94;100.00
23899;BME280;20544;50.018;20.010;2022-10-17T15:54:25;100010.99;;;18.85;100.00
23899;BME280;20544;50.018;20.010;2022-10-17T15:57:42;100005.21;;;18.75;100.00
23899;BME280;20544;50.018;20.010;2022-10-17T16:00:59;100005.43;;;18.67;100.00
23899;BME280;20544;50.018;20.010;2022-10-17T16:04:16;100008.30;;;18.52;100.00
23899;BME280;20544;50.018;20.010;2022-10-17T16:07:39;100016.54;;;18.37;100.00
23899;BME280;20544;50.018;20.010;2022-10-17T16:10:56;100013.43;;;18.33;100.00
23899;BME280;20544;50.018;20.010;2022-10-17T16:14:13;100018.16;;;18.31;100.00
23899;BME280;20544;50.018;20.010;2022-10-17T16:17:30;100016.50;;;18.23;100.00
23899;BME280;20544;50.018;20.010;2022-10-17T16:20:46;100015.47;;;18.24;100.00
23899;BME280;20544;50.018;20.010;2022-10-17T16:24:03;100013.98;;;18.15;100.00
23899;BME280;20544;50.018;20.010;2022-10-17T16:27:21;100011.30;;;18.15;100.00
23899;BME280;20544;50.018;20.010;2022-10-17T16:30:41;100020.64;;;18.33;97.45
23899;BME280;20544;50.018;20.010;2022-10-17T16:33:59;100017.39;;;18.51;94.99
23899;BME280;20544;50.018;20.010;2022-10-17T16:37:17;100022.37;;;18.61;95.83
23899;BME280;20544;50.018;20.010;2022-10-17T16:40:39;100017.39;;;18.51;100.00
23899;BME280;20544;50.018;20.010;2022-10-17T16:43:56;100017.98;;;18.39;100.00
23899;BME280;20544;50.018;20.010;2022-10-17T16:47:13;100017.10;;;18.25;100.00
23899;BME280;20544;50.018;20.010;2022-10-17T16:50:30;100012.16;;;18.22;96.84
23899;BME280;20544;50.018;20.010;2022-10-17T16:57:03;100011.98;;;18.44;93.34
23899;BME280;20544;50.018;20.010;2022-10-17T17:00:20;100003.95;;;18.51;92.33
23899;BME280;20544;50.018;20.010;2022-10-17T17:03:37;100006.64;;;18.57;91.89
23899;BME280;20544;50.018;20.010;2022-10-17T17:06:54;100006.42;;;18.59;91.31
23899;BME280;20544;50.018;20.010;2022-10-17T17:10:11;100003.56;;;18.61;90.94
23899;BME280;20544;50.018;20.010;2022-10-17T17:13:28;100003.56;;;18.61;90.73
23899;BME280;20544;50.018;20.010;2022-10-17T17:16:44;100004.38;;;18.61;90.25
23899;BME280;20544;50.018;20.010;2022-10-17T17:20:01;100003.56;;;18.61;89.66
23899;BME280;20544;50.018;20.010;2022-10-17T17:23:20;100010.17;;;18.58;89.35
23899;BME280;20544;50.018;20.010;2022-10-17T17:26:34;100011.38;;;18.55;89.09
23899;BME280;20544;50.018;20.010;2022-10-17T17:29:50;100008.91;;;18.54;88.80